createdAt,value
2022-11-25T00:01:05.674Z,68.43
2022-11-25T00:03:33.368Z,66.68
2022-11-25T00:06:09.633Z,67.13
2022-11-25T00:08:39.056Z,67.34
2022-11-25T00:11:07.649Z,67.11
2022-11-25T00:13:35.867Z,66.42
2022-11-25T00:16:04.702Z,66.91
2022-11-25T00:18:32.857Z,67.31
2022-11-25T00:21:00.588Z,67.20
2022-11-25T00:23:33.175Z,67.69
2022-11-25T00:26:08.967Z,68.25
2022-11-25T00:28:36.704Z,67.43
2022-11-25T00:31:09.058Z,67.21
2022-11-25T00:33:37.278Z,67.27
2022-11-25T00:36:08.243Z,67.93
2022-11-25T00:38:35.907Z,67.55
2022-11-25T00:41:21.279Z,68.27
2022-11-25T00:44:07.837Z,67.36
2022-11-25T00:46:38.381Z,66.69
2022-11-25T00:49:07.381Z,66.25
2022-11-25T00:51:35.031Z,66.66
2022-11-25T00:54:02.857Z,67.15
2022-11-25T00:56:30.872Z,67.04
2022-11-25T00:59:00.057Z,66.45
2022-11-25T01:01:27.822Z,66.99
2022-11-25T01:03:55.519Z,67.69
2022-11-25T01:06:23.920Z,67.95
2022-11-25T01:08:51.934Z,67.01
2022-11-25T01:11:22.039Z,67.51
2022-11-25T01:13:50.729Z,68.00
2022-11-25T01:16:21.237Z,66.90
2022-11-25T01:18:50.493Z,67.48
2022-11-25T01:21:21.214Z,68.18
2022-11-25T01:23:49.713Z,68.52
2022-11-25T01:26:20.219Z,68.98
2022-11-25T01:28:48.527Z,68.60
2022-11-25T01:31:18.381Z,68.97
2022-11-25T01:33:48.869Z,68.05
2022-11-25T01:36:18.294Z,67.00
2022-11-25T01:38:46.694Z,67.37
2022-11-25T01:41:15.715Z,67.39
2022-11-25T01:43:43.492Z,66.34
2022-11-25T01:46:21.923Z,66.73
2022-11-25T01:48:55.492Z,67.81
2022-11-25T01:51:27.514Z,67.73
2022-11-25T01:53:58.930Z,68.19
2022-11-25T01:56:27.533Z,67.61
2022-11-25T01:58:56.348Z,67.96
2022-11-25T02:01:24.172Z,68.25
2022-11-25T02:03:55.679Z,68.18
2022-11-25T02:06:26.211Z,68.12
2022-11-25T02:08:57.213Z,67.12
2022-11-25T02:11:27.562Z,67.43
2022-11-25T02:13:55.785Z,67.81
2022-11-25T02:16:23.528Z,68.00
2022-11-25T02:18:53.402Z,68.50
2022-11-25T02:21:26.898Z,68.12
2022-11-25T02:24:00.455Z,67.87
2022-11-25T02:26:29.687Z,67.88
2022-11-25T02:28:58.052Z,67.97
2022-11-25T02:31:25.833Z,68.87
2022-11-25T02:33:53.509Z,68.43
2022-11-25T02:36:23.637Z,68.48
2022-11-25T02:38:55.812Z,67.95
2022-11-25T02:41:27.723Z,68.51
2022-11-25T02:43:56.740Z,68.86
2022-11-25T02:46:25.963Z,68.40
2022-11-25T02:49:09.033Z,67.73
2022-11-25T02:51:37.856Z,65.85
2022-11-25T02:54:05.693Z,64.85
2022-11-25T02:56:36.346Z,64.75
2022-11-25T02:59:06.010Z,65.62
2022-11-25T03:01:35.098Z,65.74
2022-11-25T03:04:02.959Z,65.33
2022-11-25T03:06:31.194Z,65.45
2022-11-25T03:08:59.064Z,65.00
2022-11-25T03:11:47.238Z,64.66
2022-11-25T03:14:16.367Z,65.16
2022-11-25T03:16:44.434Z,66.61
2022-11-25T03:19:12.151Z,66.99
2022-11-25T03:21:39.796Z,67.49
2022-11-25T03:24:08.077Z,67.43
2022-11-25T03:26:35.665Z,67.58
2022-11-25T03:29:03.530Z,67.33
2022-11-25T03:31:32.549Z,67.64
2022-11-25T03:34:00.179Z,67.84
2022-11-25T03:36:27.747Z,67.73
2022-11-25T03:38:55.380Z,66.00
2022-11-25T03:41:22.939Z,66.48
2022-11-25T03:43:50.571Z,66.79
2022-11-25T03:46:18.673Z,67.18
2022-11-25T03:48:47.812Z,67.49
2022-11-25T03:51:15.422Z,67.95
2022-11-25T03:53:43.103Z,68.26
2022-11-25T03:56:10.733Z,68.48
2022-11-25T03:58:38.315Z,68.26
2022-11-25T04:01:06.092Z,68.57
2022-11-25T04:03:33.735Z,68.52
2022-11-25T04:06:02.804Z,68.55
2022-11-25T04:08:30.437Z,68.09
2022-11-25T04:10:58.015Z,68.06
2022-11-25T04:13:24.818Z,67.40
2022-11-25T04:15:52.706Z,66.75
2022-11-25T04:18:20.529Z,67.23
2022-11-25T04:20:48.270Z,66.09
2022-11-25T04:23:17.271Z,66.73
2022-11-25T04:25:44.968Z,66.35
2022-11-25T04:28:12.786Z,66.66
2022-11-25T04:30:40.669Z,67.06
2022-11-25T04:33:08.495Z,67.12
2022-11-25T04:35:36.084Z,67.37
2022-11-25T04:38:03.774Z,67.20
2022-11-25T04:40:32.698Z,67.33
2022-11-25T04:43:06.048Z,67.02
2022-11-25T04:45:51.916Z,67.43
2022-11-25T04:48:22.834Z,67.56
2022-11-25T04:50:50.497Z,67.73
2022-11-25T04:53:18.114Z,67.74
2022-11-25T04:55:47.116Z,67.59
2022-11-25T04:58:35.170Z,67.81
2022-11-25T05:01:01.877Z,67.83
2022-11-25T05:03:29.547Z,67.80
2022-11-25T05:05:57.181Z,67.76
2022-11-25T05:08:24.760Z,67.99
2022-11-25T05:10:53.726Z,68.13
2022-11-25T05:13:21.514Z,68.59
2022-11-25T05:15:49.114Z,68.01
2022-11-25T05:18:16.692Z,66.75
2022-11-25T05:20:44.911Z,66.41
2022-11-25T05:23:12.516Z,66.42
2022-11-25T05:25:40.116Z,66.67
2022-11-25T05:28:09.135Z,66.72
2022-11-25T05:30:36.825Z,67.21
2022-11-25T05:33:04.452Z,67.29
2022-11-25T05:35:32.066Z,66.87
2022-11-25T05:38:01.176Z,66.72
2022-11-25T05:40:28.800Z,66.60
2022-11-25T05:42:56.439Z,66.29
2022-11-25T05:45:25.368Z,66.80
2022-11-25T05:47:53.041Z,67.30
2022-11-25T05:50:20.655Z,67.55
2022-11-25T05:52:48.351Z,67.61
2022-11-25T05:55:15.992Z,66.65
2022-11-25T05:57:43.689Z,66.86
2022-11-25T06:00:12.303Z,67.33
2022-11-25T06:02:41.405Z,67.38
2022-11-25T06:05:09.971Z,65.42
2022-11-25T06:07:37.739Z,65.87
2022-11-25T06:10:06.536Z,65.93
2022-11-25T06:12:34.167Z,65.10
2022-11-25T06:15:01.783Z,66.27
2022-11-25T06:17:29.380Z,66.83
2022-11-25T06:19:58.353Z,67.30
2022-11-25T06:22:27.039Z,67.26
2022-11-25T06:25:01.949Z,65.54
2022-11-25T06:27:50.155Z,66.30
2022-11-25T06:30:19.483Z,66.80
2022-11-25T06:32:47.166Z,67.03
2022-11-25T06:35:16.485Z,67.33
2022-11-25T06:37:44.112Z,67.03
2022-11-25T06:40:12.352Z,65.31
2022-11-25T06:42:43.287Z,66.21
2022-11-25T06:45:11.992Z,66.42
2022-11-25T06:47:39.605Z,65.95
2022-11-25T06:50:08.807Z,65.29
2022-11-25T06:52:38.148Z,65.76
2022-11-25T06:55:06.628Z,64.81
2022-11-25T06:57:34.227Z,63.88
2022-11-25T07:00:01.858Z,63.04
2022-11-25T07:02:32.291Z,63.24
2022-11-25T07:05:02.348Z,63.50
2022-11-25T07:07:30.125Z,64.14
2022-11-25T07:09:59.112Z,64.07
2022-11-25T07:12:26.716Z,64.03
2022-11-25T07:14:54.487Z,64.75
2022-11-25T07:17:22.115Z,63.47
2022-11-25T07:19:49.739Z,63.33
2022-11-25T07:22:17.350Z,63.82
2022-11-25T07:24:44.934Z,64.56
2022-11-25T07:27:13.873Z,64.62
2022-11-25T07:30:03.162Z,64.84
2022-11-25T07:32:29.117Z,65.02
2022-11-25T07:34:56.742Z,65.27
2022-11-25T07:37:24.340Z,65.31
2022-11-25T07:39:51.967Z,64.92
2022-11-25T07:42:21.004Z,64.72
2022-11-25T07:44:49.634Z,64.50
2022-11-25T07:47:17.344Z,64.76
2022-11-25T07:49:44.981Z,65.01
2022-11-25T07:52:12.623Z,65.19
2022-11-25T07:54:40.242Z,63.69
2022-11-25T07:57:07.882Z,63.21
2022-11-25T07:59:41.199Z,63.23
2022-11-25T08:02:10.907Z,63.79
2022-11-25T08:04:38.674Z,63.21
2022-11-25T08:07:06.309Z,62.20
2022-11-25T08:09:34.389Z,63.11
2022-11-25T08:12:02.117Z,63.83
2022-11-25T08:14:29.997Z,64.03
2022-11-25T08:16:59.139Z,62.33
2022-11-25T08:19:31.270Z,62.13
2022-11-25T08:21:59.296Z,62.64
2022-11-25T08:24:27.050Z,63.30
2022-11-25T08:26:56.628Z,63.26
2022-11-25T08:29:24.226Z,63.67
2022-11-25T08:31:51.813Z,64.25
2022-11-25T08:34:24.840Z,63.35
2022-11-25T08:36:52.957Z,62.87
2022-11-25T08:39:51.606Z,63.30
2022-11-25T08:42:10.123Z,63.62
2022-11-25T08:44:37.966Z,63.83
2022-11-25T08:47:05.699Z,63.42
2022-11-25T08:49:40.557Z,62.64
2022-11-25T08:52:10.031Z,62.22
2022-11-25T08:54:38.107Z,62.32
2022-11-25T08:57:05.835Z,61.82
2022-11-25T08:59:33.507Z,60.75
2022-11-25T09:02:01.439Z,60.35
2022-11-25T09:04:29.073Z,60.34
2022-11-25T09:06:58.392Z,60.75
2022-11-25T09:09:26.060Z,61.40
2022-11-25T09:11:53.832Z,61.65
2022-11-25T09:14:22.143Z,62.74
2022-11-25T09:16:49.943Z,63.08
2022-11-25T09:19:17.521Z,62.83
2022-11-25T09:21:45.295Z,63.13
2022-11-25T09:24:14.410Z,63.47
2022-11-25T09:26:42.273Z,63.73
2022-11-25T09:29:11.575Z,64.35
2022-11-25T09:31:39.226Z,64.78
2022-11-25T09:34:08.555Z,64.32
2022-11-25T09:36:36.315Z,64.54
2022-11-25T09:39:04.201Z,64.56
2022-11-25T09:42:04.277Z,64.43
2022-11-25T09:44:57.725Z,64.22
2022-11-25T09:47:34.573Z,63.86
2022-11-25T09:50:12.888Z,63.93
2022-11-25T09:52:53.582Z,63.08
2022-11-25T09:55:24.968Z,61.99
2022-11-25T09:58:03.120Z,60.51
2022-11-25T10:00:38.749Z,58.07
2022-11-25T10:03:14.017Z,57.99
2022-11-25T10:05:53.991Z,58.58
2022-11-25T10:08:24.951Z,59.33
2022-11-25T10:10:58.624Z,58.59
2022-11-25T10:13:33.689Z,57.93
2022-11-25T10:16:06.459Z,58.67
2022-11-25T10:18:41.498Z,59.64
2022-11-25T10:21:11.367Z,58.25
2022-11-25T10:23:40.545Z,59.30
2022-11-25T10:26:14.433Z,58.61
2022-11-25T10:28:48.743Z,57.75
2022-11-25T10:31:19.472Z,57.25
2022-11-25T10:33:49.423Z,56.84
2022-11-25T10:36:20.278Z,57.06
2022-11-25T10:38:57.871Z,56.50
2022-11-25T10:41:29.518Z,56.04
2022-11-25T10:43:58.813Z,55.89
2022-11-25T10:46:56.681Z,56.30
2022-11-25T10:49:30.932Z,55.91
2022-11-25T10:51:58.948Z,55.77
2022-11-25T10:54:29.016Z,56.45
2022-11-25T10:56:58.439Z,56.56
2022-11-25T10:59:30.805Z,55.78
2022-11-25T11:02:17.543Z,55.13
2022-11-25T11:04:58.418Z,55.34
2022-11-25T11:07:27.928Z,55.14
2022-11-25T11:10:08.346Z,55.39
2022-11-25T11:12:36.257Z,55.65
2022-11-25T11:15:20.415Z,55.25
2022-11-25T11:17:48.963Z,55.37
2022-11-25T11:20:25.442Z,54.97
2022-11-25T11:22:58.405Z,54.09
2022-11-25T11:25:33.275Z,54.66
2022-11-25T11:28:02.246Z,53.29
2022-11-25T11:30:32.771Z,53.00
2022-11-25T11:33:06.370Z,53.25
2022-11-25T11:35:44.076Z,53.46
2022-11-25T11:38:27.990Z,52.93
2022-11-25T11:41:03.563Z,53.17
2022-11-25T11:43:47.755Z,53.60
2022-11-25T11:46:33.646Z,53.31
2022-11-25T11:49:30.210Z,53.82
2022-11-25T11:52:03.836Z,53.72
2022-11-25T11:54:36.432Z,53.57
2022-11-25T11:57:08.324Z,53.00
2022-11-25T11:59:49.359Z,52.68
2022-11-25T12:02:29.692Z,53.55
2022-11-25T12:05:06.195Z,53.49
2022-11-25T12:07:39.850Z,53.37
2022-11-25T12:10:18.310Z,53.66
2022-11-25T12:12:52.446Z,54.26
2022-11-25T12:15:25.528Z,54.41
2022-11-25T12:17:59.187Z,54.48
2022-11-25T12:20:37.584Z,54.21
2022-11-25T12:23:11.408Z,54.07
2022-11-25T12:25:42.554Z,54.28
2022-11-25T12:28:16.120Z,54.94
2022-11-25T12:31:01.855Z,54.67
2022-11-25T12:33:44.939Z,55.46
2022-11-25T12:36:17.647Z,54.84
2022-11-25T12:38:48.011Z,54.53
2022-11-25T12:41:24.472Z,54.50
2022-11-25T12:43:56.449Z,55.07
2022-11-25T12:46:30.618Z,54.27
2022-11-25T12:49:00.555Z,54.67
2022-11-25T12:51:46.123Z,54.91
2022-11-25T12:54:31.431Z,54.57
2022-11-25T12:57:32.043Z,53.99
2022-11-25T13:00:39.947Z,54.28
2022-11-25T13:03:26.869Z,55.66
2022-11-25T13:06:30.800Z,54.59
2022-11-25T13:09:04.830Z,54.10
2022-11-25T13:11:54.151Z,54.67
2022-11-25T13:14:28.875Z,54.14
2022-11-25T13:16:58.622Z,53.69
2022-11-25T13:19:26.621Z,54.23
2022-11-25T13:22:00.912Z,54.04
2022-11-25T13:24:32.717Z,54.14
2022-11-25T13:27:02.232Z,54.72
2022-11-25T13:30:01.123Z,54.57
2022-11-25T13:32:38.985Z,54.97
2022-11-25T13:35:38.084Z,56.00
2022-11-25T13:38:49.093Z,56.16
2022-11-25T13:41:26.542Z,56.97
2022-11-25T13:44:02.058Z,56.87
2022-11-25T13:46:38.384Z,57.72
2022-11-25T13:49:07.070Z,58.45
2022-11-25T13:51:34.927Z,58.65
2022-11-25T13:54:07.613Z,57.96
2022-11-25T13:56:37.320Z,58.61
2022-11-25T13:59:35.915Z,57.77
2022-11-25T14:02:36.930Z,58.82
2022-11-25T14:05:27.819Z,58.82
2022-11-25T14:08:08.234Z,59.45
2022-11-25T14:10:46.673Z,58.37
2022-11-25T14:13:47.320Z,58.10
2022-11-25T14:16:31.767Z,57.46
2022-11-25T14:19:50.168Z,58.37
2022-11-25T14:22:24.683Z,59.24
2022-11-25T14:24:55.428Z,59.75
2022-11-25T14:27:28.969Z,60.23
2022-11-25T14:30:00.762Z,60.71
2022-11-25T14:32:36.753Z,60.99
2022-11-25T14:35:09.218Z,60.10
2022-11-25T14:37:43.586Z,59.96
2022-11-25T14:40:16.504Z,60.77
2022-11-25T14:42:49.695Z,61.87
2022-11-25T14:45:29.176Z,63.45
2022-11-25T14:47:57.053Z,65.01
2022-11-25T14:50:40.972Z,65.72
2022-11-25T14:53:10.425Z,66.21
2022-11-25T14:55:38.843Z,66.63
2022-11-25T14:58:07.949Z,66.82
2022-11-25T15:00:35.572Z,67.81
2022-11-25T15:03:06.452Z,68.63
2022-11-25T15:05:36.085Z,69.55
2022-11-25T15:08:10.665Z,70.10
2022-11-25T15:10:43.471Z,70.61
2022-11-25T15:13:24.808Z,70.88
2022-11-25T15:15:55.648Z,71.15
2022-11-25T15:18:25.313Z,71.21
2022-11-25T15:20:58.388Z,71.90
2022-11-25T15:23:31.933Z,71.97
2022-11-25T15:26:01.072Z,72.35
2022-11-25T15:28:35.087Z,72.98
2022-11-25T15:31:08.811Z,73.91
2022-11-25T15:33:38.223Z,74.87
2022-11-25T15:36:06.543Z,75.24
2022-11-25T15:38:37.966Z,75.54
2022-11-25T15:41:07.823Z,75.30
2022-11-25T15:43:42.015Z,75.68
2022-11-25T15:46:10.371Z,75.80
2022-11-25T15:48:41.588Z,76.09
2022-11-25T15:51:22.585Z,76.98
2022-11-25T15:53:54.713Z,78.12
2022-11-25T15:56:25.574Z,78.47
2022-11-25T15:59:00.156Z,78.66
2022-11-25T16:01:31.938Z,78.62
2022-11-25T16:04:20.915Z,78.69
2022-11-25T16:06:56.532Z,78.89
2022-11-25T16:09:28.497Z,78.76
2022-11-25T16:12:05.895Z,79.03
2022-11-25T16:14:38.779Z,79.23
2022-11-25T16:17:12.140Z,79.43
2022-11-25T16:19:43.188Z,79.80
2022-11-25T16:22:15.332Z,80.54
2022-11-25T16:24:50.772Z,81.27
2022-11-25T16:27:21.201Z,81.75
2022-11-25T16:29:52.925Z,81.99
2022-11-25T16:32:22.099Z,81.53
2022-11-25T16:34:50.020Z,81.56
2022-11-25T16:37:17.750Z,81.64
2022-11-25T16:39:45.422Z,81.44
2022-11-25T16:42:21.423Z,81.08
2022-11-25T16:44:52.089Z,81.39
2022-11-25T16:47:21.809Z,81.68
2022-11-25T16:49:49.564Z,81.56
2022-11-25T16:52:17.226Z,81.81
2022-11-25T16:54:44.825Z,82.05
2022-11-25T16:57:18.863Z,81.99
2022-11-25T16:59:49.667Z,81.76
2022-11-25T17:02:22.847Z,81.90
2022-11-25T17:04:50.887Z,82.05
2022-11-25T17:07:35.814Z,81.83
2022-11-25T17:10:04.054Z,81.90
2022-11-25T17:12:34.269Z,82.16
2022-11-25T17:15:03.014Z,82.10
2022-11-25T17:17:32.665Z,82.07
2022-11-25T17:20:00.345Z,82.13
2022-11-25T17:22:33.338Z,82.19
2022-11-25T17:25:02.445Z,82.31
2022-11-25T17:27:32.292Z,82.31
2022-11-25T17:30:03.569Z,82.13
2022-11-25T17:32:33.021Z,82.52
2022-11-25T17:35:00.895Z,82.85
2022-11-25T17:37:30.973Z,82.79
2022-11-25T17:39:58.611Z,82.52
2022-11-25T17:42:30.406Z,82.70
2022-11-25T17:44:58.594Z,82.49
2022-11-25T17:47:26.226Z,82.60
2022-11-25T17:49:55.286Z,82.20
2022-11-25T17:52:23.030Z,82.02
2022-11-25T17:54:50.662Z,81.68
2022-11-25T17:57:21.852Z,81.87
2022-11-25T17:59:50.009Z,82.05
2022-11-25T18:02:19.528Z,81.88
2022-11-25T18:04:47.575Z,81.74
2022-11-25T18:07:16.632Z,82.03
2022-11-25T18:09:45.609Z,82.16
2022-11-25T18:12:19.455Z,82.13
2022-11-25T18:14:47.703Z,82.31
2022-11-25T18:17:18.839Z,82.63
2022-11-25T18:19:52.914Z,82.97
2022-11-25T18:22:24.588Z,83.27
2022-11-25T18:24:52.939Z,82.84
2022-11-25T18:27:24.482Z,81.81
2022-11-25T18:29:53.155Z,81.50
2022-11-25T18:32:21.245Z,81.40
2022-11-25T18:34:49.005Z,81.38
2022-11-25T18:37:16.713Z,81.15
2022-11-25T18:39:46.458Z,80.95
2022-11-25T18:42:23.633Z,80.71
2022-11-25T18:44:51.261Z,80.28
2022-11-25T18:47:18.851Z,79.66
2022-11-25T18:49:49.808Z,79.96
2022-11-25T18:52:20.063Z,80.43
2022-11-25T18:54:49.435Z,80.31
2022-11-25T18:57:17.116Z,81.39
2022-11-25T18:59:48.030Z,81.29
2022-11-25T19:02:23.949Z,81.69
2022-11-25T19:04:51.557Z,81.92
2022-11-25T19:07:19.191Z,81.74
2022-11-25T19:09:46.837Z,81.66
2022-11-25T19:12:27.830Z,81.54
2022-11-25T19:14:57.280Z,81.56
2022-11-25T19:17:26.030Z,81.65
2022-11-25T19:19:57.670Z,81.73
2022-11-25T19:22:25.400Z,81.97
2022-11-25T19:24:53.054Z,81.85
2022-11-25T19:27:26.264Z,81.77
2022-11-25T19:29:55.627Z,81.42
2022-11-25T19:32:25.311Z,81.81
2022-11-25T19:34:56.392Z,81.85
2022-11-25T19:37:24.134Z,81.53
2022-11-25T19:39:53.411Z,80.91
2022-11-25T19:42:24.555Z,81.11
2022-11-25T19:44:52.718Z,81.32
2022-11-25T19:47:25.522Z,81.18
2022-11-25T19:49:57.383Z,81.43
2022-11-25T19:52:35.667Z,81.62
2022-11-25T19:55:07.069Z,81.27
2022-11-25T19:57:36.060Z,81.52
2022-11-25T20:00:07.705Z,81.67
2022-11-25T20:02:35.414Z,81.64
2022-11-25T20:05:05.073Z,82.34
2022-11-25T20:07:33.089Z,82.00
2022-11-25T20:10:08.805Z,81.65
2022-11-25T20:12:37.872Z,81.56
2022-11-25T20:15:07.286Z,81.43
2022-11-25T20:17:37.497Z,81.30
2022-11-25T20:20:11.823Z,80.90
2022-11-25T20:22:56.086Z,80.77
2022-11-25T20:25:24.182Z,80.38
2022-11-25T20:27:53.430Z,79.97
2022-11-25T20:30:22.928Z,80.10
2022-11-25T20:32:50.650Z,80.13
2022-11-25T20:35:19.143Z,80.52
2022-11-25T20:37:54.112Z,80.46
2022-11-25T20:40:32.805Z,80.11
2022-11-25T20:43:02.145Z,79.79
2022-11-25T20:45:33.175Z,79.43
2022-11-25T20:48:00.969Z,79.33
2022-11-25T20:50:30.640Z,78.93
2022-11-25T20:52:58.300Z,78.63
2022-11-25T20:55:27.374Z,78.65
2022-11-25T20:57:55.184Z,78.79
2022-11-25T21:00:25.727Z,78.85
2022-11-25T21:02:57.124Z,78.72
2022-11-25T21:05:27.416Z,78.66
2022-11-25T21:07:55.457Z,78.62
2022-11-25T21:10:26.499Z,78.72
2022-11-25T21:12:54.491Z,77.93
2022-11-25T21:15:25.962Z,77.98
2022-11-25T21:17:53.587Z,77.96
2022-11-25T21:20:21.459Z,78.08
2022-11-25T21:22:52.115Z,78.45
2022-11-25T21:25:22.081Z,78.16
2022-11-25T21:27:52.052Z,78.24
2022-11-25T21:30:21.623Z,78.87
2022-11-25T21:32:52.882Z,79.08
2022-11-25T21:35:20.513Z,78.98
2022-11-25T21:37:48.425Z,78.41
2022-11-25T21:40:31.139Z,78.44
2022-11-25T21:42:59.276Z,78.53
2022-11-25T21:45:26.970Z,78.72
2022-11-25T21:47:55.941Z,79.01
2022-11-25T21:50:23.628Z,79.25
2022-11-25T21:52:51.260Z,80.03
2022-11-25T21:55:18.864Z,80.18
2022-11-25T21:57:46.581Z,80.21
2022-11-25T22:00:21.657Z,80.09
2022-11-25T22:02:49.601Z,80.29
2022-11-25T22:05:20.552Z,80.02
2022-11-25T22:07:48.402Z,79.97
2022-11-25T22:10:17.297Z,79.95
2022-11-25T22:12:47.480Z,79.56
2022-11-25T22:15:17.776Z,79.52
2022-11-25T22:17:45.764Z,79.33
2022-11-25T22:20:26.632Z,79.31
2022-11-25T22:22:54.856Z,79.53
2022-11-25T22:25:23.966Z,79.71
2022-11-25T22:27:51.778Z,79.67
2022-11-25T22:30:21.750Z,80.08
2022-11-25T22:32:59.415Z,79.94
2022-11-25T22:35:29.203Z,79.74
2022-11-25T22:37:56.824Z,79.67
2022-11-25T22:40:24.972Z,79.51
2022-11-25T22:42:54.051Z,79.06
2022-11-25T22:45:28.591Z,78.85
2022-11-25T22:47:56.585Z,78.94
2022-11-25T22:50:27.379Z,78.93
2022-11-25T22:52:57.263Z,78.79
2022-11-25T22:55:26.870Z,78.68
2022-11-25T22:57:56.762Z,78.78
2022-11-25T23:00:26.912Z,78.26
2022-11-25T23:02:58.210Z,78.26
2022-11-25T23:05:32.125Z,78.16
2022-11-25T23:08:01.760Z,77.76
2022-11-25T23:10:32.217Z,77.51
2022-11-25T23:12:59.835Z,77.78
2022-11-25T23:15:27.478Z,77.84
2022-11-25T23:17:56.626Z,77.74
2022-11-25T23:20:27.649Z,77.60
2022-11-25T23:22:55.667Z,77.59
2022-11-25T23:25:24.961Z,77.63
2022-11-25T23:27:52.550Z,77.74
2022-11-25T23:30:22.477Z,77.55
2022-11-25T23:32:52.416Z,78.71
2022-11-25T23:35:21.679Z,78.85
2022-11-25T23:37:55.098Z,78.87
2022-11-25T23:40:26.073Z,78.85
2022-11-25T23:42:55.446Z,79.37
2022-11-25T23:45:26.113Z,79.78
2022-11-25T23:47:55.538Z,79.79
2022-11-25T23:50:28.104Z,80.09
2022-11-25T23:52:59.014Z,80.08
2022-11-25T23:55:33.187Z,80.03
2022-11-25T23:58:02.255Z,79.95
